Honeoye Falls, New York
Current Conditions -  °F | °C
As of 12:54 AM on Tuesday 27 Jan 2015 (Local Time) from KROC Reporting Station
Light Snow Light Snow  
Wind Chill:   Ceiling: 1400
Heat Index: 20°   Visibility: 2.5mi
Dew Point: 16°   Wind: 10mph
Humidity: 85%   Direction: 50°NE
Pressure: 29.92"   Gusts: NA
Location:  42.95°N, 77.59°W
Report Text: KROC 270554Z 05009KT 2 1/2SM -SN BR OVC014 M07/M09 A2992 RMK AO2 SLP145 4/002 P0001 60007 T10671089 11067 21078 58012
Loading
Personal Weather Stations






























Interactive Weather Map New forecast layout! Learn more

10-Day Weather Forecast

Advertisements
Track Severe Weather on mobile